sensor_id;sensor_type;location;lat;lon;timestamp;P1;durP1;ratioP1;P2;durP2;ratioP2
19059;SDS011;9663;48.996;8.334;2022-11-03T00:01:46;4.75;;;1.92;;
19059;SDS011;9663;48.996;8.334;2022-11-03T00:04:15;5.10;;;1.55;;
19059;SDS011;9663;48.996;8.334;2022-11-03T00:06:47;4.30;;;1.80;;
19059;SDS011;9663;48.996;8.334;2022-11-03T00:09:18;4.20;;;1.60;;
19059;SDS011;9663;48.996;8.334;2022-11-03T00:11:46;4.50;;;1.60;;
19059;SDS011;9663;48.996;8.334;2022-11-03T00:14:14;4.55;;;1.63;;
19059;SDS011;9663;48.996;8.334;2022-11-03T00:16:41;4.68;;;1.42;;
19059;SDS011;9663;48.996;8.334;2022-11-03T00:19:08;4.38;;;1.67;;
19059;SDS011;9663;48.996;8.334;2022-11-03T00:21:35;4.43;;;1.50;;
19059;SDS011;9663;48.996;8.334;2022-11-03T00:24:02;4.65;;;1.60;;
19059;SDS011;9663;48.996;8.334;2022-11-03T00:26:29;4.97;;;1.50;;
19059;SDS011;9663;48.996;8.334;2022-11-03T00:28:58;5.22;;;1.67;;
19059;SDS011;9663;48.996;8.334;2022-11-03T00:31:27;3.95;;;1.60;;
19059;SDS011;9663;48.996;8.334;2022-11-03T00:33:56;4.63;;;1.90;;
19059;SDS011;9663;48.996;8.334;2022-11-03T00:36:25;5.15;;;1.73;;
19059;SDS011;9663;48.996;8.334;2022-11-03T00:38:53;4.18;;;1.92;;
19059;SDS011;9663;48.996;8.334;2022-11-03T00:41:20;4.82;;;1.60;;
19059;SDS011;9663;48.996;8.334;2022-11-03T00:43:47;4.32;;;1.75;;
19059;SDS011;9663;48.996;8.334;2022-11-03T00:46:14;4.80;;;1.92;;
19059;SDS011;9663;48.996;8.334;2022-11-03T00:48:40;4.53;;;1.70;;
19059;SDS011;9663;48.996;8.334;2022-11-03T00:51:10;4.32;;;1.60;;
19059;SDS011;9663;48.996;8.334;2022-11-03T00:53:45;5.57;;;1.92;;
19059;SDS011;9663;48.996;8.334;2022-11-03T00:56:16;4.40;;;1.90;;
19059;SDS011;9663;48.996;8.334;2022-11-03T00:58:46;4.93;;;1.88;;
19059;SDS011;9663;48.996;8.334;2022-11-03T01:03:43;5.63;;;1.70;;
19059;SDS011;9663;48.996;8.334;2022-11-03T01:06:31;4.32;;;1.90;;
19059;SDS011;9663;48.996;8.334;2022-11-03T01:09:19;5.63;;;1.95;;
19059;SDS011;9663;48.996;8.334;2022-11-03T01:12:19;3.83;;;1.50;;
19059;SDS011;9663;48.996;8.334;2022-11-03T01:14:44;4.38;;;1.83;;
19059;SDS011;9663;48.996;8.334;2022-11-03T01:19:42;4.82;;;1.60;;
19059;SDS011;9663;48.996;8.334;2022-11-03T01:22:08;3.88;;;1.70;;
19059;SDS011;9663;48.996;8.334;2022-11-03T01:24:35;4.25;;;1.90;;
19059;SDS011;9663;48.996;8.334;2022-11-03T01:27:01;3.53;;;1.58;;
19059;SDS011;9663;48.996;8.334;2022-11-03T01:29:27;4.90;;;1.48;;
19059;SDS011;9663;48.996;8.334;2022-11-03T01:31:53;3.90;;;1.60;;
19059;SDS011;9663;48.996;8.334;2022-11-03T01:34:20;3.90;;;1.70;;
19059;SDS011;9663;48.996;8.334;2022-11-03T01:36:46;4.90;;;1.50;;
19059;SDS011;9663;48.996;8.334;2022-11-03T01:39:14;5.07;;;1.50;;
19059;SDS011;9663;48.996;8.334;2022-11-03T01:41:43;5.22;;;1.80;;
19059;SDS011;9663;48.996;8.334;2022-11-03T01:46:39;4.70;;;1.60;;
19059;SDS011;9663;48.996;8.334;2022-11-03T01:49:16;4.97;;;1.90;;
19059;SDS011;9663;48.996;8.334;2022-11-03T01:52:01;4.47;;;1.92;;
19059;SDS011;9663;48.996;8.334;2022-11-03T01:54:39;4.95;;;1.60;;
19059;SDS011;9663;48.996;8.334;2022-11-03T01:57:11;4.53;;;1.40;;
19059;SDS011;9663;48.996;8.334;2022-11-03T01:59:45;3.50;;;1.20;;
19059;SDS011;9663;48.996;8.334;2022-11-03T02:02:12;4.18;;;1.40;;
19059;SDS011;9663;48.996;8.334;2022-11-03T02:04:38;4.60;;;1.70;;
19059;SDS011;9663;48.996;8.334;2022-11-03T02:09:52;4.03;;;1.45;;
19059;SDS011;9663;48.996;8.334;2022-11-03T02:12:18;4.40;;;1.85;;
19059;SDS011;9663;48.996;8.334;2022-11-03T02:14:53;5.63;;;1.50;;
19059;SDS011;9663;48.996;8.334;2022-11-03T02:17:26;4.30;;;1.50;;
19059;SDS011;9663;48.996;8.334;2022-11-03T02:25:32;6.00;;;1.80;;
19059;SDS011;9663;48.996;8.334;2022-11-03T02:28:24;3.58;;;1.20;;
19059;SDS011;9663;48.996;8.334;2022-11-03T02:36:18;2.95;;;1.20;;
19059;SDS011;9663;48.996;8.334;2022-11-03T02:39:11;3.03;;;1.10;;
19059;SDS011;9663;48.996;8.334;2022-11-03T02:41:47;4.70;;;1.40;;
19059;SDS011;9663;48.996;8.334;2022-11-03T02:44:17;3.78;;;1.40;;
19059;SDS011;9663;48.996;8.334;2022-11-03T02:46:45;3.75;;;1.40;;
19059;SDS011;9663;48.996;8.334;2022-11-03T02:49:18;4.50;;;1.15;;
19059;SDS011;9663;48.996;8.334;2022-11-03T02:51:43;4.40;;;1.10;;
19059;SDS011;9663;48.996;8.334;2022-11-03T02:54:24;3.28;;;1.25;;
19059;SDS011;9663;48.996;8.334;2022-11-03T02:57:01;4.20;;;1.20;;
19059;SDS011;9663;48.996;8.334;2022-11-03T02:59:53;4.40;;;1.40;;
19059;SDS011;9663;48.996;8.334;2022-11-03T03:02:31;3.35;;;1.10;;
19059;SDS011;9663;48.996;8.334;2022-11-03T03:05:05;1.90;;;0.70;;
19059;SDS011;9663;48.996;8.334;2022-11-03T03:07:37;3.55;;;1.10;;
19059;SDS011;9663;48.996;8.334;2022-11-03T03:10:20;4.13;;;1.10;;
19059;SDS011;9663;48.996;8.334;2022-11-03T03:12:52;3.25;;;1.20;;
19059;SDS011;9663;48.996;8.334;2022-11-03T03:15:24;3.75;;;1.13;;
19059;SDS011;9663;48.996;8.334;2022-11-03T03:18:19;3.30;;;1.13;;
19059;SDS011;9663;48.996;8.334;2022-11-03T03:20:54;3.60;;;1.20;;
19059;SDS011;9663;48.996;8.334;2022-11-03T03:23:34;3.10;;;1.20;;
19059;SDS011;9663;48.996;8.334;2022-11-03T03:26:09;2.90;;;1.10;;
19059;SDS011;9663;48.996;8.334;2022-11-03T03:29:02;5.65;;;1.10;;
19059;SDS011;9663;48.996;8.334;2022-11-03T03:32:07;3.42;;;1.13;;
19059;SDS011;9663;48.996;8.334;2022-11-03T03:34:36;3.20;;;1.00;;
19059;SDS011;9663;48.996;8.334;2022-11-03T03:37:07;2.90;;;1.10;;
19059;SDS011;9663;48.996;8.334;2022-11-03T03:39:37;3.55;;;1.00;;
19059;SDS011;9663;48.996;8.334;2022-11-03T03:42:08;3.20;;;1.00;;
19059;SDS011;9663;48.996;8.334;2022-11-03T03:44:38;2.83;;;0.95;;
19059;SDS011;9663;48.996;8.334;2022-11-03T03:47:10;2.83;;;1.00;;
19059;SDS011;9663;48.996;8.334;2022-11-03T03:49:48;2.00;;;0.82;;
19059;SDS011;9663;48.996;8.334;2022-11-03T03:52:13;2.47;;;0.90;;
19059;SDS011;9663;48.996;8.334;2022-11-03T03:54:40;3.08;;;0.90;;
19059;SDS011;9663;48.996;8.334;2022-11-03T03:57:06;3.60;;;1.02;;
19059;SDS011;9663;48.996;8.334;2022-11-03T03:59:40;3.47;;;1.10;;
19059;SDS011;9663;48.996;8.334;2022-11-03T04:02:07;2.95;;;1.02;;
19059;SDS011;9663;48.996;8.334;2022-11-03T04:04:33;2.97;;;1.20;;
19059;SDS011;9663;48.996;8.334;2022-11-03T04:06:59;2.90;;;1.00;;
19059;SDS011;9663;48.996;8.334;2022-11-03T04:09:43;4.03;;;1.23;;
19059;SDS011;9663;48.996;8.334;2022-11-03T04:12:08;2.70;;;1.00;;
19059;SDS011;9663;48.996;8.334;2022-11-03T04:14:52;2.17;;;0.80;;
19059;SDS011;9663;48.996;8.334;2022-11-03T04:17:37;4.22;;;1.15;;
19059;SDS011;9663;48.996;8.334;2022-11-03T04:20:33;2.45;;;0.95;;
19059;SDS011;9663;48.996;8.334;2022-11-03T04:23:17;2.85;;;1.15;;
19059;SDS011;9663;48.996;8.334;2022-11-03T04:25:47;2.75;;;1.10;;
19059;SDS011;9663;48.996;8.334;2022-11-03T04:28:16;3.13;;;1.08;;
19059;SDS011;9663;48.996;8.334;2022-11-03T04:30:42;2.47;;;0.93;;
19059;SDS011;9663;48.996;8.334;2022-11-03T04:33:13;3.72;;;1.15;;
19059;SDS011;9663;48.996;8.334;2022-11-03T04:35:41;3.35;;;1.17;;
19059;SDS011;9663;48.996;8.334;2022-11-03T04:40:40;2.83;;;1.20;;
19059;SDS011;9663;48.996;8.334;2022-11-03T04:43:11;2.92;;;1.10;;
19059;SDS011;9663;48.996;8.334;2022-11-03T04:45:42;3.33;;;1.00;;
19059;SDS011;9663;48.996;8.334;2022-11-03T04:48:11;4.05;;;1.23;;
19059;SDS011;9663;48.996;8.334;2022-11-03T04:50:39;3.13;;;1.20;;
19059;SDS011;9663;48.996;8.334;2022-11-03T04:53:10;3.38;;;1.17;;
19059;SDS011;9663;48.996;8.334;2022-11-03T04:55:40;5.05;;;1.40;;
19059;SDS011;9663;48.996;8.334;2022-11-03T04:58:17;2.78;;;1.10;;
19059;SDS011;9663;48.996;8.334;2022-11-03T05:00:52;4.05;;;1.27;;
19059;SDS011;9663;48.996;8.334;2022-11-03T05:03:21;3.35;;;1.30;;
19059;SDS011;9663;48.996;8.334;2022-11-03T05:05:50;4.22;;;1.30;;
19059;SDS011;9663;48.996;8.334;2022-11-03T05:08:16;4.03;;;1.33;;
19059;SDS011;9663;48.996;8.334;2022-11-03T05:10:44;3.42;;;1.13;;
19059;SDS011;9663;48.996;8.334;2022-11-03T05:13:20;5.15;;;1.50;;
19059;SDS011;9663;48.996;8.334;2022-11-03T05:15:53;4.25;;;1.40;;
19059;SDS011;9663;48.996;8.334;2022-11-03T05:18:31;4.60;;;1.70;;
19059;SDS011;9663;48.996;8.334;2022-11-03T05:21:02;3.97;;;1.80;;
19059;SDS011;9663;48.996;8.334;2022-11-03T05:23:56;3.72;;;1.60;;
19059;SDS011;9663;48.996;8.334;2022-11-03T05:26:31;3.47;;;1.30;;
19059;SDS011;9663;48.996;8.334;2022-11-03T05:28:59;3.63;;;1.23;;
19059;SDS011;9663;48.996;8.334;2022-11-03T05:31:39;2.92;;;1.15;;
19059;SDS011;9663;48.996;8.334;2022-11-03T05:36:58;3.13;;;1.10;;
19059;SDS011;9663;48.996;8.334;2022-11-03T05:39:32;3.10;;;1.17;;
19059;SDS011;9663;48.996;8.334;2022-11-03T05:42:02;3.15;;;1.10;;
19059;SDS011;9663;48.996;8.334;2022-11-03T05:44:46;2.92;;;0.95;;
19059;SDS011;9663;48.996;8.334;2022-11-03T05:47:17;4.55;;;1.13;;
19059;SDS011;9663;48.996;8.334;2022-11-03T05:50:19;3.22;;;1.08;;
19059;SDS011;9663;48.996;8.334;2022-11-03T05:52:50;2.80;;;1.05;;
19059;SDS011;9663;48.996;8.334;2022-11-03T05:55:27;2.80;;;0.95;;
19059;SDS011;9663;48.996;8.334;2022-11-03T05:57:59;3.17;;;0.90;;
19059;SDS011;9663;48.996;8.334;2022-11-03T06:00:36;4.00;;;1.20;;
19059;SDS011;9663;48.996;8.334;2022-11-03T06:03:06;2.33;;;0.90;;
19059;SDS011;9663;48.996;8.334;2022-11-03T06:05:32;3.25;;;0.93;;
19059;SDS011;9663;48.996;8.334;2022-11-03T06:08:04;2.58;;;0.93;;
19059;SDS011;9663;48.996;8.334;2022-11-03T06:10:53;3.97;;;1.33;;
19059;SDS011;9663;48.996;8.334;2022-11-03T06:13:32;3.67;;;1.10;;
19059;SDS011;9663;48.996;8.334;2022-11-03T06:16:05;4.15;;;1.10;;
19059;SDS011;9663;48.996;8.334;2022-11-03T06:19:00;3.05;;;1.10;;
19059;SDS011;9663;48.996;8.334;2022-11-03T06:21:38;3.08;;;1.00;;
19059;SDS011;9663;48.996;8.334;2022-11-03T06:24:06;2.78;;;1.05;;
19059;SDS011;9663;48.996;8.334;2022-11-03T06:26:37;2.92;;;1.00;;
19059;SDS011;9663;48.996;8.334;2022-11-03T06:29:02;3.22;;;1.00;;
19059;SDS011;9663;48.996;8.334;2022-11-03T06:31:29;2.58;;;1.00;;
19059;SDS011;9663;48.996;8.334;2022-11-03T06:33:57;2.83;;;0.90;;
19059;SDS011;9663;48.996;8.334;2022-11-03T06:36:24;3.42;;;1.10;;
19059;SDS011;9663;48.996;8.334;2022-11-03T06:38:59;3.60;;;1.13;;
19059;SDS011;9663;48.996;8.334;2022-11-03T06:41:28;2.83;;;1.00;;
19059;SDS011;9663;48.996;8.334;2022-11-03T06:44:00;2.90;;;1.00;;
19059;SDS011;9663;48.996;8.334;2022-11-03T06:46:42;2.92;;;1.10;;
19059;SDS011;9663;48.996;8.334;2022-11-03T06:49:21;3.63;;;1.42;;
19059;SDS011;9663;48.996;8.334;2022-11-03T06:51:56;2.95;;;1.25;;
19059;SDS011;9663;48.996;8.334;2022-11-03T06:54:30;4.28;;;1.20;;
19059;SDS011;9663;48.996;8.334;2022-11-03T06:56:55;3.40;;;1.25;;
19059;SDS011;9663;48.996;8.334;2022-11-03T06:59:21;3.35;;;1.23;;
19059;SDS011;9663;48.996;8.334;2022-11-03T07:01:50;3.55;;;1.20;;
19059;SDS011;9663;48.996;8.334;2022-11-03T07:04:20;3.53;;;1.30;;
19059;SDS011;9663;48.996;8.334;2022-11-03T07:06:52;3.80;;;1.45;;
19059;SDS011;9663;48.996;8.334;2022-11-03T07:09:24;3.08;;;1.08;;
19059;SDS011;9663;48.996;8.334;2022-11-03T07:11:51;3.67;;;1.25;;
19059;SDS011;9663;48.996;8.334;2022-11-03T07:14:29;4.85;;;1.02;;
19059;SDS011;9663;48.996;8.334;2022-11-03T07:16:58;3.28;;;1.23;;
19059;SDS011;9663;48.996;8.334;2022-11-03T07:19:29;2.80;;;1.08;;
19059;SDS011;9663;48.996;8.334;2022-11-03T07:22:02;2.90;;;1.02;;
19059;SDS011;9663;48.996;8.334;2022-11-03T07:24:41;2.85;;;1.00;;
19059;SDS011;9663;48.996;8.334;2022-11-03T07:30:09;3.25;;;1.05;;
19059;SDS011;9663;48.996;8.334;2022-11-03T07:32:40;2.83;;;0.93;;
19059;SDS011;9663;48.996;8.334;2022-11-03T07:37:41;2.30;;;0.90;;
19059;SDS011;9663;48.996;8.334;2022-11-03T07:40:18;2.95;;;1.10;;
19059;SDS011;9663;48.996;8.334;2022-11-03T07:42:51;3.47;;;1.27;;
19059;SDS011;9663;48.996;8.334;2022-11-03T07:45:39;2.83;;;1.00;;
19059;SDS011;9663;48.996;8.334;2022-11-03T07:48:25;1.95;;;0.88;;
19059;SDS011;9663;48.996;8.334;2022-11-03T07:50:59;2.38;;;0.80;;
19059;SDS011;9663;48.996;8.334;2022-11-03T07:53:39;2.03;;;0.90;;
19059;SDS011;9663;48.996;8.334;2022-11-03T07:58:45;2.40;;;1.00;;
19059;SDS011;9663;48.996;8.334;2022-11-03T08:01:29;3.28;;;1.00;;
19059;SDS011;9663;48.996;8.334;2022-11-03T08:04:04;2.38;;;0.90;;
19059;SDS011;9663;48.996;8.334;2022-11-03T08:06:34;3.20;;;1.10;;
19059;SDS011;9663;48.996;8.334;2022-11-03T08:08:59;2.78;;;1.10;;
19059;SDS011;9663;48.996;8.334;2022-11-03T08:11:25;2.08;;;0.90;;
19059;SDS011;9663;48.996;8.334;2022-11-03T08:13:51;2.83;;;1.20;;
19059;SDS011;9663;48.996;8.334;2022-11-03T08:16:18;2.28;;;0.93;;
19059;SDS011;9663;48.996;8.334;2022-11-03T08:18:44;2.75;;;0.88;;
19059;SDS011;9663;48.996;8.334;2022-11-03T08:21:10;3.00;;;0.93;;
19059;SDS011;9663;48.996;8.334;2022-11-03T08:23:36;2.83;;;1.10;;
19059;SDS011;9663;48.996;8.334;2022-11-03T08:26:03;2.17;;;0.90;;
19059;SDS011;9663;48.996;8.334;2022-11-03T08:28:29;2.30;;;0.80;;
19059;SDS011;9663;48.996;8.334;2022-11-03T08:30:56;3.03;;;1.40;;
19059;SDS011;9663;48.996;8.334;2022-11-03T08:33:29;3.53;;;1.33;;
19059;SDS011;9663;48.996;8.334;2022-11-03T08:35:56;3.78;;;1.50;;
19059;SDS011;9663;48.996;8.334;2022-11-03T08:38:23;3.58;;;1.20;;
19059;SDS011;9663;48.996;8.334;2022-11-03T08:40:49;4.97;;;1.60;;
19059;SDS011;9663;48.996;8.334;2022-11-03T08:43:15;3.40;;;1.15;;
19059;SDS011;9663;48.996;8.334;2022-11-03T08:45:40;3.90;;;1.50;;
19059;SDS011;9663;48.996;8.334;2022-11-03T08:48:06;5.63;;;1.80;;
19059;SDS011;9663;48.996;8.334;2022-11-03T08:50:32;3.85;;;1.48;;
19059;SDS011;9663;48.996;8.334;2022-11-03T08:52:57;3.65;;;1.48;;
19059;SDS011;9663;48.996;8.334;2022-11-03T08:55:23;4.38;;;1.40;;
19059;SDS011;9663;48.996;8.334;2022-11-03T08:57:49;4.55;;;1.60;;
19059;SDS011;9663;48.996;8.334;2022-11-03T09:00:15;4.90;;;1.63;;
19059;SDS011;9663;48.996;8.334;2022-11-03T09:02:41;4.63;;;1.33;;
19059;SDS011;9663;48.996;8.334;2022-11-03T09:05:10;4.60;;;1.80;;
19059;SDS011;9663;48.996;8.334;2022-11-03T09:07:37;5.38;;;1.40;;
19059;SDS011;9663;48.996;8.334;2022-11-03T09:10:05;5.88;;;1.55;;
19059;SDS011;9663;48.996;8.334;2022-11-03T09:12:33;4.03;;;1.60;;
19059;SDS011;9663;48.996;8.334;2022-11-03T09:15:00;5.63;;;1.88;;
19059;SDS011;9663;48.996;8.334;2022-11-03T09:17:25;5.10;;;1.88;;
19059;SDS011;9663;48.996;8.334;2022-11-03T09:19:51;4.45;;;1.38;;
19059;SDS011;9663;48.996;8.334;2022-11-03T09:22:17;4.60;;;1.65;;
19059;SDS011;9663;48.996;8.334;2022-11-03T09:24:42;4.28;;;1.60;;
19059;SDS011;9663;48.996;8.334;2022-11-03T09:27:08;4.82;;;2.10;;
19059;SDS011;9663;48.996;8.334;2022-11-03T09:29:34;6.25;;;2.10;;
19059;SDS011;9663;48.996;8.334;2022-11-03T09:31:59;5.00;;;1.80;;
19059;SDS011;9663;48.996;8.334;2022-11-03T09:34:25;4.53;;;1.55;;
19059;SDS011;9663;48.996;8.334;2022-11-03T09:36:51;4.85;;;1.98;;
19059;SDS011;9663;48.996;8.334;2022-11-03T09:39:17;5.05;;;1.60;;
19059;SDS011;9663;48.996;8.334;2022-11-03T09:41:43;3.65;;;1.50;;
19059;SDS011;9663;48.996;8.334;2022-11-03T09:44:08;4.47;;;1.65;;
19059;SDS011;9663;48.996;8.334;2022-11-03T09:46:36;4.65;;;1.88;;
19059;SDS011;9663;48.996;8.334;2022-11-03T09:49:02;5.22;;;1.90;;
19059;SDS011;9663;48.996;8.334;2022-11-03T09:51:29;4.97;;;1.50;;
19059;SDS011;9663;48.996;8.334;2022-11-03T09:54:00;4.28;;;1.50;;
19059;SDS011;9663;48.996;8.334;2022-11-03T09:56:29;3.53;;;1.60;;
19059;SDS011;9663;48.996;8.334;2022-11-03T09:58:55;4.07;;;1.58;;
19059;SDS011;9663;48.996;8.334;2022-11-03T10:01:21;4.57;;;1.67;;
19059;SDS011;9663;48.996;8.334;2022-11-03T10:03:47;4.90;;;1.70;;
19059;SDS011;9663;48.996;8.334;2022-11-03T10:06:13;4.65;;;1.63;;
19059;SDS011;9663;48.996;8.334;2022-11-03T10:08:41;4.05;;;1.80;;
19059;SDS011;9663;48.996;8.334;2022-11-03T10:11:10;4.35;;;1.77;;
19059;SDS011;9663;48.996;8.334;2022-11-03T10:13:37;4.47;;;1.90;;
19059;SDS011;9663;48.996;8.334;2022-11-03T10:16:07;4.40;;;1.60;;
19059;SDS011;9663;48.996;8.334;2022-11-03T10:18:38;3.40;;;1.42;;
19059;SDS011;9663;48.996;8.334;2022-11-03T10:21:05;5.13;;;1.60;;
19059;SDS011;9663;48.996;8.334;2022-11-03T10:23:40;3.67;;;1.45;;
19059;SDS011;9663;48.996;8.334;2022-11-03T10:26:09;5.28;;;1.73;;
19059;SDS011;9663;48.996;8.334;2022-11-03T10:28:59;5.78;;;2.00;;
19059;SDS011;9663;48.996;8.334;2022-11-03T10:31:35;4.22;;;1.25;;
19059;SDS011;9663;48.996;8.334;2022-11-03T10:34:04;4.63;;;1.73;;
19059;SDS011;9663;48.996;8.334;2022-11-03T10:36:49;4.32;;;1.70;;
19059;SDS011;9663;48.996;8.334;2022-11-03T10:39:34;4.70;;;1.85;;
19059;SDS011;9663;48.996;8.334;2022-11-03T10:42:00;6.18;;;1.52;;
19059;SDS011;9663;48.996;8.334;2022-11-03T10:44:26;6.55;;;1.70;;
19059;SDS011;9663;48.996;8.334;2022-11-03T10:47:00;4.15;;;1.85;;
19059;SDS011;9663;48.996;8.334;2022-11-03T10:49:30;4.13;;;1.60;;
19059;SDS011;9663;48.996;8.334;2022-11-03T10:54:47;4.40;;;1.90;;
19059;SDS011;9663;48.996;8.334;2022-11-03T10:57:14;5.97;;;1.50;;
19059;SDS011;9663;48.996;8.334;2022-11-03T10:59:42;3.90;;;1.50;;
19059;SDS011;9663;48.996;8.334;2022-11-03T11:02:12;3.88;;;1.60;;
19059;SDS011;9663;48.996;8.334;2022-11-03T11:04:46;4.75;;;1.77;;
19059;SDS011;9663;48.996;8.334;2022-11-03T11:07:31;3.85;;;1.48;;
19059;SDS011;9663;48.996;8.334;2022-11-03T11:12:38;3.67;;;1.35;;
19059;SDS011;9663;48.996;8.334;2022-11-03T11:15:34;4.82;;;1.55;;
19059;SDS011;9663;48.996;8.334;2022-11-03T11:18:08;6.20;;;1.60;;
19059;SDS011;9663;48.996;8.334;2022-11-03T11:31:35;4.20;;;1.20;;
19059;SDS011;9663;48.996;8.334;2022-11-03T11:37:30;3.42;;;1.20;;
19059;SDS011;9663;48.996;8.334;2022-11-03T11:42:14;4.32;;;1.25;;
19059;SDS011;9663;48.996;8.334;2022-11-03T11:44:49;4.70;;;1.30;;
19059;SDS011;9663;48.996;8.334;2022-11-03T11:52:30;4.22;;;1.50;;
19059;SDS011;9663;48.996;8.334;2022-11-03T11:55:29;5.10;;;1.13;;
19059;SDS011;9663;48.996;8.334;2022-11-03T11:58:05;3.83;;;1.30;;
19059;SDS011;9663;48.996;8.334;2022-11-03T12:00:58;3.95;;;1.08;;
19059;SDS011;9663;48.996;8.334;2022-11-03T12:03:34;3.83;;;1.27;;
19059;SDS011;9663;48.996;8.334;2022-11-03T12:06:07;4.78;;;1.17;;
19059;SDS011;9663;48.996;8.334;2022-11-03T12:08:36;3.92;;;1.30;;
19059;SDS011;9663;48.996;8.334;2022-11-03T12:11:03;3.75;;;1.40;;
19059;SDS011;9663;48.996;8.334;2022-11-03T12:16:26;4.28;;;1.52;;
19059;SDS011;9663;48.996;8.334;2022-11-03T12:18:52;3.78;;;1.15;;
19059;SDS011;9663;48.996;8.334;2022-11-03T12:27:50;4.95;;;1.40;;
19059;SDS011;9663;48.996;8.334;2022-11-03T12:30:17;3.95;;;1.17;;
19059;SDS011;9663;48.996;8.334;2022-11-03T12:32:43;3.35;;;1.40;;
19059;SDS011;9663;48.996;8.334;2022-11-03T12:35:11;3.47;;;1.30;;
19059;SDS011;9663;48.996;8.334;2022-11-03T12:37:38;5.70;;;1.65;;
19059;SDS011;9663;48.996;8.334;2022-11-03T12:40:05;3.60;;;1.45;;
19059;SDS011;9663;48.996;8.334;2022-11-03T12:42:31;3.65;;;1.38;;
19059;SDS011;9663;48.996;8.334;2022-11-03T12:44:57;4.60;;;1.33;;
19059;SDS011;9663;48.996;8.334;2022-11-03T12:47:22;4.88;;;1.67;;
19059;SDS011;9663;48.996;8.334;2022-11-03T12:49:48;4.45;;;1.70;;
19059;SDS011;9663;48.996;8.334;2022-11-03T12:52:14;4.03;;;1.55;;
19059;SDS011;9663;48.996;8.334;2022-11-03T12:54:40;6.03;;;1.52;;
19059;SDS011;9663;48.996;8.334;2022-11-03T12:57:06;4.95;;;1.80;;
19059;SDS011;9663;48.996;8.334;2022-11-03T12:59:32;5.10;;;1.73;;
19059;SDS011;9663;48.996;8.334;2022-11-03T13:01:58;4.82;;;1.83;;
19059;SDS011;9663;48.996;8.334;2022-11-03T13:04:23;4.88;;;1.60;;
19059;SDS011;9663;48.996;8.334;2022-11-03T13:06:49;4.68;;;1.70;;
19059;SDS011;9663;48.996;8.334;2022-11-03T13:09:15;5.18;;;1.73;;
19059;SDS011;9663;48.996;8.334;2022-11-03T13:11:40;4.68;;;1.73;;
19059;SDS011;9663;48.996;8.334;2022-11-03T13:14:24;4.43;;;1.70;;
19059;SDS011;9663;48.996;8.334;2022-11-03T13:16:53;5.10;;;1.60;;
19059;SDS011;9663;48.996;8.334;2022-11-03T13:19:18;4.78;;;1.80;;
19059;SDS011;9663;48.996;8.334;2022-11-03T13:21:44;5.63;;;1.73;;
19059;SDS011;9663;48.996;8.334;2022-11-03T13:24:10;4.53;;;1.50;;
19059;SDS011;9663;48.996;8.334;2022-11-03T13:26:35;4.85;;;1.65;;
19059;SDS011;9663;48.996;8.334;2022-11-03T13:29:01;5.32;;;1.73;;
19059;SDS011;9663;48.996;8.334;2022-11-03T13:31:26;5.68;;;1.50;;
19059;SDS011;9663;48.996;8.334;2022-11-03T13:33:52;6.30;;;1.70;;
19059;SDS011;9663;48.996;8.334;2022-11-03T13:36:18;4.75;;;1.63;;
19059;SDS011;9663;48.996;8.334;2022-11-03T13:38:43;6.97;;;1.63;;
19059;SDS011;9663;48.996;8.334;2022-11-03T13:41:09;3.53;;;1.58;;
19059;SDS011;9663;48.996;8.334;2022-11-03T13:43:35;3.65;;;1.30;;
19059;SDS011;9663;48.996;8.334;2022-11-03T13:46:00;4.10;;;1.45;;
19059;SDS011;9663;48.996;8.334;2022-11-03T13:48:27;3.22;;;1.40;;
19059;SDS011;9663;48.996;8.334;2022-11-03T13:50:53;3.30;;;1.40;;
19059;SDS011;9663;48.996;8.334;2022-11-03T13:53:20;4.72;;;1.50;;
19059;SDS011;9663;48.996;8.334;2022-11-03T13:55:47;3.78;;;1.30;;
19059;SDS011;9663;48.996;8.334;2022-11-03T13:58:12;5.03;;;1.40;;
19059;SDS011;9663;48.996;8.334;2022-11-03T14:00:38;6.97;;;1.40;;
19059;SDS011;9663;48.996;8.334;2022-11-03T14:03:04;4.70;;;1.75;;
19059;SDS011;9663;48.996;8.334;2022-11-03T14:05:30;6.40;;;1.25;;
19059;SDS011;9663;48.996;8.334;2022-11-03T14:07:56;4.85;;;1.40;;
19059;SDS011;9663;48.996;8.334;2022-11-03T14:10:21;4.82;;;1.23;;
19059;SDS011;9663;48.996;8.334;2022-11-03T14:12:47;5.15;;;1.40;;
19059;SDS011;9663;48.996;8.334;2022-11-03T14:15:13;4.60;;;1.63;;
19059;SDS011;9663;48.996;8.334;2022-11-03T14:17:38;4.10;;;1.60;;
19059;SDS011;9663;48.996;8.334;2022-11-03T14:20:04;5.00;;;1.80;;
19059;SDS011;9663;48.996;8.334;2022-11-03T14:22:33;4.50;;;1.30;;
19059;SDS011;9663;48.996;8.334;2022-11-03T14:24:59;2.90;;;1.15;;
19059;SDS011;9663;48.996;8.334;2022-11-03T14:27:25;4.88;;;1.40;;
19059;SDS011;9663;48.996;8.334;2022-11-03T14:29:51;4.88;;;1.50;;
19059;SDS011;9663;48.996;8.334;2022-11-03T14:32:17;3.90;;;1.48;;
19059;SDS011;9663;48.996;8.334;2022-11-03T14:34:44;4.65;;;1.55;;
19059;SDS011;9663;48.996;8.334;2022-11-03T14:37:10;5.78;;;1.30;;
19059;SDS011;9663;48.996;8.334;2022-11-03T14:39:36;4.32;;;1.50;;
19059;SDS011;9663;48.996;8.334;2022-11-03T14:42:09;3.30;;;1.15;;
19059;SDS011;9663;48.996;8.334;2022-11-03T14:44:41;5.28;;;1.40;;
19059;SDS011;9663;48.996;8.334;2022-11-03T14:47:09;3.92;;;1.15;;
19059;SDS011;9663;48.996;8.334;2022-11-03T14:49:37;4.55;;;1.50;;
19059;SDS011;9663;48.996;8.334;2022-11-03T14:52:03;3.97;;;1.30;;
19059;SDS011;9663;48.996;8.334;2022-11-03T14:54:31;5.60;;;1.60;;
19059;SDS011;9663;48.996;8.334;2022-11-03T14:56:57;3.03;;;1.00;;
19059;SDS011;9663;48.996;8.334;2022-11-03T14:59:23;3.50;;;1.20;;
19059;SDS011;9663;48.996;8.334;2022-11-03T15:01:49;3.45;;;1.35;;
19059;SDS011;9663;48.996;8.334;2022-11-03T15:04:16;4.90;;;1.30;;
19059;SDS011;9663;48.996;8.334;2022-11-03T15:06:42;4.28;;;1.38;;
19059;SDS011;9663;48.996;8.334;2022-11-03T15:09:08;4.90;;;1.30;;
19059;SDS011;9663;48.996;8.334;2022-11-03T15:11:34;7.25;;;1.63;;
19059;SDS011;9663;48.996;8.334;2022-11-03T15:14:01;5.68;;;1.50;;
19059;SDS011;9663;48.996;8.334;2022-11-03T15:16:27;4.63;;;1.63;;
19059;SDS011;9663;48.996;8.334;2022-11-03T15:18:53;7.13;;;1.52;;
19059;SDS011;9663;48.996;8.334;2022-11-03T15:21:18;4.40;;;1.50;;
19059;SDS011;9663;48.996;8.334;2022-11-03T15:23:44;3.80;;;1.60;;
19059;SDS011;9663;48.996;8.334;2022-11-03T15:26:10;3.50;;;1.40;;
19059;SDS011;9663;48.996;8.334;2022-11-03T15:28:36;4.70;;;1.67;;
19059;SDS011;9663;48.996;8.334;2022-11-03T15:31:02;4.32;;;1.40;;
19059;SDS011;9663;48.996;8.334;2022-11-03T15:33:28;5.78;;;1.70;;
19059;SDS011;9663;48.996;8.334;2022-11-03T15:35:54;3.80;;;1.40;;
19059;SDS011;9663;48.996;8.334;2022-11-03T15:38:20;4.25;;;1.50;;
19059;SDS011;9663;48.996;8.334;2022-11-03T15:40:45;3.70;;;1.45;;
19059;SDS011;9663;48.996;8.334;2022-11-03T15:43:11;4.65;;;1.45;;
19059;SDS011;9663;48.996;8.334;2022-11-03T15:45:37;3.50;;;1.27;;
19059;SDS011;9663;48.996;8.334;2022-11-03T15:48:04;3.38;;;1.40;;
19059;SDS011;9663;48.996;8.334;2022-11-03T15:50:30;3.78;;;1.50;;
19059;SDS011;9663;48.996;8.334;2022-11-03T15:52:56;5.15;;;1.48;;
19059;SDS011;9663;48.996;8.334;2022-11-03T15:55:22;5.72;;;1.90;;
19059;SDS011;9663;48.996;8.334;2022-11-03T15:57:48;4.65;;;1.70;;
19059;SDS011;9663;48.996;8.334;2022-11-03T16:00:14;5.57;;;1.65;;
19059;SDS011;9663;48.996;8.334;2022-11-03T16:02:40;3.88;;;1.58;;
19059;SDS011;9663;48.996;8.334;2022-11-03T16:05:06;4.68;;;1.42;;
19059;SDS011;9663;48.996;8.334;2022-11-03T16:07:33;3.97;;;1.70;;
19059;SDS011;9663;48.996;8.334;2022-11-03T16:09:59;4.25;;;1.60;;
19059;SDS011;9663;48.996;8.334;2022-11-03T16:12:25;7.10;;;2.10;;
19059;SDS011;9663;48.996;8.334;2022-11-03T16:14:51;4.05;;;1.60;;
19059;SDS011;9663;48.996;8.334;2022-11-03T16:17:17;4.45;;;1.73;;
19059;SDS011;9663;48.996;8.334;2022-11-03T16:19:46;5.32;;;1.67;;
19059;SDS011;9663;48.996;8.334;2022-11-03T16:22:12;4.38;;;1.77;;
19059;SDS011;9663;48.996;8.334;2022-11-03T16:24:38;6.93;;;1.67;;
19059;SDS011;9663;48.996;8.334;2022-11-03T16:27:04;4.57;;;1.77;;
19059;SDS011;9663;48.996;8.334;2022-11-03T16:29:30;4.32;;;1.73;;
19059;SDS011;9663;48.996;8.334;2022-11-03T16:31:55;4.55;;;1.65;;